createdAt,value
2018-09-19T00:01:41.786Z,18.76
2018-09-19T00:02:41.718Z,18.72
2018-09-19T00:04:34.502Z,18.68
2018-09-19T00:05:34.425Z,18.72
2018-09-19T00:07:27.205Z,18.59
2018-09-19T00:08:27.127Z,18.60
2018-09-19T00:10:19.888Z,18.59
2018-09-19T00:11:19.823Z,18.64
2018-09-19T00:13:12.611Z,18.71
2018-09-19T00:14:12.527Z,18.71
2018-09-19T00:16:04.394Z,18.79
2018-09-19T00:17:04.332Z,18.79
2018-09-19T00:18:57.119Z,18.83
2018-09-19T00:19:57.083Z,18.84
2018-09-19T00:21:49.822Z,18.89
2018-09-19T00:22:49.764Z,18.86
2018-09-19T00:24:42.560Z,18.82
2018-09-19T00:25:42.448Z,18.93
2018-09-19T00:27:35.240Z,18.97
2018-09-19T00:28:35.162Z,18.94
2018-09-19T00:30:27.958Z,18.93
2018-09-19T00:31:27.897Z,18.97
2018-09-19T00:33:20.719Z,18.90
2018-09-19T00:34:20.603Z,18.84
2018-09-19T00:36:13.372Z,18.93
2018-09-19T00:37:13.313Z,18.89
2018-09-19T00:39:06.093Z,18.99
2018-09-19T00:40:06.016Z,19.01
2018-09-19T00:41:58.789Z,18.90
2018-09-19T00:42:58.725Z,18.96
2018-09-19T00:44:51.503Z,18.93
2018-09-19T00:45:51.428Z,18.94
2018-09-19T00:47:44.202Z,18.90
2018-09-19T00:48:44.180Z,18.93
2018-09-19T00:50:36.894Z,18.82
2018-09-19T00:51:36.831Z,18.83
2018-09-19T00:53:29.609Z,18.74
2018-09-19T00:54:29.538Z,18.82
2018-09-19T00:56:22.304Z,18.83
2018-09-19T00:57:22.237Z,18.72
2018-09-19T00:59:15.014Z,18.94
2018-09-19T01:00:14.939Z,18.93
2018-09-19T01:02:07.700Z,19.01
2018-09-19T01:03:07.642Z,19.05
2018-09-19T01:05:00.440Z,19.01
2018-09-19T01:06:00.347Z,19.01
2018-09-19T01:07:53.128Z,19.02
2018-09-19T01:08:53.055Z,19.02
2018-09-19T01:10:45.821Z,18.96
2018-09-19T01:11:45.756Z,18.93
2018-09-19T01:13:38.529Z,18.89
2018-09-19T01:14:38.454Z,18.91
2018-09-19T01:16:31.218Z,19.10
2018-09-19T01:17:31.154Z,19.09
2018-09-19T01:19:23.932Z,19.02
2018-09-19T01:20:23.864Z,19.07
2018-09-19T01:22:16.625Z,18.96
2018-09-19T01:23:16.568Z,18.90
2018-09-19T01:25:09.331Z,18.94
2018-09-19T01:26:09.257Z,18.83
2018-09-19T01:28:02.031Z,18.91
2018-09-19T01:29:01.959Z,18.94
2018-09-19T01:30:54.722Z,18.94
2018-09-19T01:31:54.657Z,18.94
2018-09-19T01:33:47.437Z,18.91
2018-09-19T01:34:47.360Z,18.91
2018-09-19T01:36:40.135Z,18.91
2018-09-19T01:37:40.066Z,18.84
2018-09-19T01:39:32.841Z,18.83
2018-09-19T01:40:32.772Z,18.79
2018-09-19T01:42:25.543Z,18.78
2018-09-19T01:43:25.473Z,18.75
2018-09-19T01:45:18.259Z,18.79
2018-09-19T01:46:18.180Z,18.79
2018-09-19T01:48:10.993Z,18.82
2018-09-19T01:49:10.873Z,18.64
2018-09-19T01:51:03.636Z,18.72
2018-09-19T01:52:03.581Z,18.72
2018-09-19T01:53:56.378Z,18.72
2018-09-19T01:54:56.301Z,18.71
2018-09-19T01:56:49.058Z,18.54
2018-09-19T01:57:49.000Z,18.60
2018-09-19T01:59:41.810Z,18.50
2018-09-19T02:00:41.733Z,18.50
2018-09-19T02:02:34.557Z,18.42
2018-09-19T02:03:34.493Z,18.34
2018-09-19T02:05:27.285Z,18.38
2018-09-19T02:06:27.208Z,18.36
2018-09-19T02:08:19.970Z,18.34
2018-09-19T02:09:19.905Z,18.44
2018-09-19T02:11:12.683Z,18.21
2018-09-19T02:12:12.615Z,18.25
2018-09-19T02:14:05.399Z,18.23
2018-09-19T02:15:05.325Z,18.19
2018-09-19T02:16:57.281Z,18.14
2018-09-19T02:17:57.230Z,18.16
2018-09-19T02:19:49.998Z,18.17
2018-09-19T02:20:49.925Z,18.09
2018-09-19T02:22:42.693Z,18.07
2018-09-19T02:23:42.630Z,18.13
2018-09-19T02:25:34.549Z,18.13
2018-09-19T02:26:34.460Z,18.05
2018-09-19T02:28:27.245Z,18.10
2018-09-19T02:29:27.155Z,18.07
2018-09-19T02:31:19.928Z,18.01
2018-09-19T02:32:19.852Z,18.01
2018-09-19T02:34:12.638Z,17.99
2018-09-19T02:35:12.558Z,17.95
2018-09-19T02:37:05.324Z,17.81
2018-09-19T02:38:05.263Z,17.86
2018-09-19T02:39:57.068Z,17.86
2018-09-19T02:40:56.985Z,17.80
2018-09-19T02:42:49.747Z,17.77
2018-09-19T02:43:49.687Z,17.74
2018-09-19T02:45:42.461Z,17.79
2018-09-19T02:46:42.390Z,17.76
2018-09-19T02:48:35.146Z,17.77
2018-09-19T02:49:35.085Z,17.68
2018-09-19T02:51:27.859Z,17.77
2018-09-19T02:52:27.796Z,17.77
2018-09-19T02:54:20.564Z,17.71
2018-09-19T02:55:20.489Z,17.66
2018-09-19T02:57:13.245Z,17.65
2018-09-19T02:58:13.187Z,17.49
2018-09-19T03:00:05.971Z,17.53
2018-09-19T03:01:05.904Z,17.58
2018-09-19T03:02:58.667Z,17.45
2018-09-19T03:03:58.594Z,17.45
2018-09-19T03:05:51.363Z,17.45
2018-09-19T03:06:51.288Z,17.40
2018-09-19T03:08:44.056Z,17.51
2018-09-19T03:09:43.994Z,17.38
2018-09-19T03:11:36.765Z,17.39
2018-09-19T03:12:36.686Z,17.33
2018-09-19T03:14:29.467Z,17.25
2018-09-19T03:15:29.394Z,17.22
2018-09-19T03:17:22.280Z,17.18
2018-09-19T03:18:22.106Z,17.21
2018-09-19T03:20:14.877Z,17.22
2018-09-19T03:21:14.864Z,17.15
2018-09-19T03:23:07.566Z,17.10
2018-09-19T03:24:07.501Z,17.09
2018-09-19T03:26:00.277Z,17.10
2018-09-19T03:27:00.201Z,17.10
2018-09-19T03:28:52.962Z,17.12
2018-09-19T03:29:52.904Z,17.05
2018-09-19T03:31:45.680Z,17.02
2018-09-19T03:32:45.624Z,17.07
2018-09-19T03:34:37.371Z,16.95
2018-09-19T03:35:37.297Z,16.92
2018-09-19T03:37:30.071Z,16.92
2018-09-19T03:38:30.004Z,16.95
2018-09-19T03:40:22.814Z,16.87
2018-09-19T03:41:22.732Z,16.85
2018-09-19T03:43:15.490Z,16.81
2018-09-19T03:44:15.434Z,16.67
2018-09-19T03:46:08.202Z,16.67
2018-09-19T03:47:08.143Z,16.69
2018-09-19T03:49:00.924Z,16.60
2018-09-19T03:50:00.831Z,16.52
2018-09-19T03:51:53.590Z,16.52
2018-09-19T03:52:53.522Z,16.55
2018-09-19T03:54:46.291Z,16.52
2018-09-19T03:55:46.221Z,16.42
2018-09-19T03:57:38.984Z,16.48
2018-09-19T03:58:38.924Z,16.48
2018-09-19T04:00:31.691Z,16.40
2018-09-19T04:01:31.618Z,16.44
2018-09-19T04:03:24.379Z,16.41
2018-09-19T04:04:24.312Z,16.29
2018-09-19T04:06:17.089Z,16.27
2018-09-19T04:07:17.016Z,16.34
2018-09-19T04:09:09.787Z,16.32
2018-09-19T04:10:09.733Z,16.30
2018-09-19T04:12:02.530Z,16.30
2018-09-19T04:13:02.439Z,16.22
2018-09-19T04:14:55.221Z,16.22
2018-09-19T04:15:55.137Z,16.27
2018-09-19T04:17:47.938Z,16.23
2018-09-19T04:18:47.838Z,16.16
2018-09-19T04:20:40.614Z,16.27
2018-09-19T04:21:40.538Z,16.18
2018-09-19T04:23:33.302Z,16.18
2018-09-19T04:24:33.240Z,16.17
2018-09-19T04:26:26.129Z,16.17
2018-09-19T04:27:26.055Z,16.10
2018-09-19T04:29:18.837Z,16.11
2018-09-19T04:30:18.754Z,16.07
2018-09-19T04:32:11.563Z,16.07
2018-09-19T04:33:11.454Z,16.04
2018-09-19T04:35:04.245Z,15.88
2018-09-19T04:36:04.184Z,15.86
2018-09-19T04:37:56.948Z,15.89
2018-09-19T04:38:56.878Z,15.89
2018-09-19T04:40:49.664Z,15.91
2018-09-19T04:41:49.608Z,15.91
2018-09-19T04:43:42.344Z,15.89
2018-09-19T04:44:42.284Z,15.78
2018-09-19T04:46:35.058Z,15.86
2018-09-19T04:47:34.982Z,15.85
2018-09-19T04:49:27.771Z,15.85
2018-09-19T04:50:27.719Z,15.85
2018-09-19T04:52:20.475Z,15.81
2018-09-19T04:53:20.402Z,15.76
2018-09-19T04:55:13.184Z,15.78
2018-09-19T04:56:13.103Z,15.91
2018-09-19T04:58:05.902Z,15.92
2018-09-19T04:59:05.824Z,15.80
2018-09-19T05:00:58.597Z,15.92
2018-09-19T05:01:58.529Z,15.91
2018-09-19T05:03:51.289Z,15.86
2018-09-19T05:04:51.223Z,15.89
2018-09-19T05:06:44.006Z,15.86
2018-09-19T05:07:43.933Z,15.86
2018-09-19T05:09:36.696Z,15.95
2018-09-19T05:10:36.626Z,15.86
2018-09-19T05:12:29.409Z,16.01
2018-09-19T05:13:29.323Z,16.06
2018-09-19T05:15:22.141Z,16.03
2018-09-19T05:16:22.128Z,16.03
2018-09-19T05:18:14.829Z,16.07
2018-09-19T05:19:14.794Z,16.06
2018-09-19T05:21:07.562Z,16.13
2018-09-19T05:22:07.482Z,16.14
2018-09-19T05:24:00.271Z,16.07
2018-09-19T05:25:00.211Z,15.99
2018-09-19T05:26:53.001Z,16.13
2018-09-19T05:27:52.911Z,16.16
2018-09-19T05:29:45.695Z,16.27
2018-09-19T05:30:45.630Z,16.26
2018-09-19T05:32:38.447Z,16.36
2018-09-19T05:33:38.355Z,16.42
2018-09-19T05:35:31.160Z,16.48
2018-09-19T05:36:31.070Z,16.51
2018-09-19T05:38:23.870Z,16.65
2018-09-19T05:39:23.794Z,16.72
2018-09-19T05:41:16.562Z,16.84
2018-09-19T05:42:16.641Z,16.92
2018-09-19T05:44:09.257Z,17.09
2018-09-19T05:45:09.194Z,17.12
2018-09-19T05:47:01.983Z,17.14
2018-09-19T05:48:01.912Z,17.24
2018-09-19T05:49:54.682Z,17.35
2018-09-19T05:50:54.615Z,17.46
2018-09-19T05:52:47.438Z,17.45
2018-09-19T05:53:47.320Z,17.49
2018-09-19T05:55:40.078Z,17.62
2018-09-19T05:56:40.016Z,17.66
2018-09-19T05:58:32.793Z,17.74
2018-09-19T05:59:32.725Z,17.76
2018-09-19T06:01:25.510Z,17.87
2018-09-19T06:02:25.434Z,17.91
2018-09-19T06:04:18.205Z,17.92
2018-09-19T06:05:18.153Z,18.01
2018-09-19T06:07:10.921Z,18.13
2018-09-19T06:08:10.853Z,18.19
2018-09-19T06:10:03.617Z,18.32
2018-09-19T06:11:03.556Z,18.39
2018-09-19T06:12:56.379Z,18.60
2018-09-19T06:13:56.272Z,18.69
2018-09-19T06:15:49.035Z,18.76
2018-09-19T06:16:48.976Z,18.93
2018-09-19T06:18:41.770Z,19.01
2018-09-19T06:19:41.698Z,19.12
2018-09-19T06:21:33.471Z,19.21
2018-09-19T06:22:33.399Z,19.42
2018-09-19T06:24:26.176Z,19.65
2018-09-19T06:25:26.115Z,19.71
2018-09-19T06:27:18.898Z,20.04
2018-09-19T06:28:18.830Z,20.13
2018-09-19T06:30:11.597Z,20.53
2018-09-19T06:31:11.554Z,20.66
2018-09-19T06:33:04.450Z,21.27
2018-09-19T06:34:04.234Z,21.51
2018-09-19T06:35:56.994Z,21.98
2018-09-19T06:36:56.977Z,22.23
2018-09-19T06:38:49.705Z,23.03
2018-09-19T06:39:49.637Z,23.52
2018-09-19T06:41:41.419Z,24.18
2018-09-19T06:42:41.348Z,24.74
2018-09-19T06:44:34.110Z,25.79
2018-09-19T06:45:34.131Z,26.31
2018-09-19T06:47:26.828Z,27.16
2018-09-19T06:48:26.795Z,27.28
2018-09-19T06:50:19.526Z,27.86
2018-09-19T06:51:19.475Z,28.14
2018-09-19T06:53:12.267Z,28.45
2018-09-19T06:54:12.190Z,28.55
2018-09-19T06:56:05.042Z,28.76
2018-09-19T06:57:04.930Z,28.92
2018-09-19T06:58:57.721Z,29.11
2018-09-19T06:59:57.652Z,29.36
2018-09-19T07:01:50.453Z,29.18
2018-09-19T07:02:50.388Z,28.54
2018-09-19T07:04:43.157Z,27.50
2018-09-19T07:05:43.132Z,27.15
2018-09-19T07:07:36.019Z,27.20
2018-09-19T07:08:35.839Z,27.35
2018-09-19T07:10:28.622Z,27.40
2018-09-19T07:11:28.567Z,27.25
2018-09-19T07:13:21.357Z,26.91
2018-09-19T07:14:21.283Z,26.79
2018-09-19T07:16:14.071Z,27.21
2018-09-19T07:17:14.025Z,27.53
2018-09-19T07:19:06.860Z,28.20
2018-09-19T07:20:06.796Z,28.42
2018-09-19T07:21:59.611Z,29.25
2018-09-19T07:22:59.529Z,29.57
2018-09-19T07:24:52.405Z,30.03
2018-09-19T07:25:52.345Z,30.44
2018-09-19T07:27:45.188Z,30.70
2018-09-19T07:28:45.271Z,30.85
2018-09-19T07:30:37.848Z,31.05
2018-09-19T07:31:37.801Z,30.91
2018-09-19T07:33:30.614Z,31.10
2018-09-19T07:34:30.600Z,31.00
2018-09-19T07:36:23.320Z,30.91
2018-09-19T07:37:23.260Z,30.79
2018-09-19T07:39:16.107Z,30.59
2018-09-19T07:40:16.024Z,30.48
2018-09-19T07:42:08.805Z,29.99
2018-09-19T07:43:08.742Z,29.62
2018-09-19T07:45:01.530Z,29.15
2018-09-19T07:46:01.483Z,28.80
2018-09-19T07:47:54.282Z,28.17
2018-09-19T07:48:54.217Z,27.87
2018-09-19T07:50:47.067Z,27.40
2018-09-19T07:51:46.962Z,27.16
2018-09-19T07:53:39.773Z,27.03
2018-09-19T07:54:39.748Z,26.90
2018-09-19T07:56:32.510Z,26.90
2018-09-19T07:57:32.450Z,26.87
2018-09-19T07:59:25.281Z,26.83
2018-09-19T08:00:25.184Z,26.71
2018-09-19T08:02:17.968Z,26.31
2018-09-19T08:03:17.892Z,26.32
2018-09-19T08:05:10.673Z,26.72
2018-09-19T08:06:10.622Z,27.11
2018-09-19T08:08:03.410Z,27.33
2018-09-19T08:09:03.362Z,27.23
2018-09-19T08:10:56.221Z,27.08
2018-09-19T08:11:56.072Z,27.15
2018-09-19T08:13:48.889Z,27.18
2018-09-19T08:14:48.800Z,27.25
2018-09-19T08:16:41.603Z,27.84
2018-09-19T08:17:41.514Z,28.18
2018-09-19T08:19:34.336Z,28.42
2018-09-19T08:20:34.267Z,28.83
2018-09-19T08:22:26.266Z,29.95
2018-09-19T08:23:26.143Z,30.57
2018-09-19T08:25:18.937Z,30.59
2018-09-19T08:26:18.885Z,30.60
2018-09-19T08:28:11.747Z,30.85
2018-09-19T08:29:11.680Z,31.13
2018-09-19T08:31:04.387Z,31.67
2018-09-19T08:32:04.338Z,31.92
2018-09-19T08:33:57.146Z,31.92
2018-09-19T08:34:57.079Z,31.54
2018-09-19T08:36:49.899Z,31.57
2018-09-19T08:37:49.832Z,31.92
2018-09-19T08:39:42.633Z,32.10
2018-09-19T08:40:42.562Z,32.16
2018-09-19T08:42:34.486Z,32.07
2018-09-19T08:43:34.423Z,32.25
2018-09-19T08:45:27.214Z,32.43
2018-09-19T08:46:27.161Z,32.29
2018-09-19T08:48:19.969Z,32.80
2018-09-19T08:49:19.901Z,32.69
2018-09-19T08:51:12.689Z,32.66
2018-09-19T08:52:12.642Z,32.50
2018-09-19T08:54:05.452Z,32.56
2018-09-19T08:55:05.385Z,32.58
2018-09-19T08:56:58.231Z,32.21
2018-09-19T08:57:58.135Z,32.03
2018-09-19T08:59:50.963Z,31.94
2018-09-19T09:00:50.906Z,31.92
2018-09-19T09:02:43.705Z,31.82
2018-09-19T09:03:43.638Z,31.54
2018-09-19T09:05:36.464Z,30.91
2018-09-19T09:06:36.407Z,30.86
2018-09-19T09:08:29.230Z,30.72
2018-09-19T09:09:29.147Z,30.90
2018-09-19T09:11:21.968Z,31.05
2018-09-19T09:12:21.982Z,31.03
2018-09-19T09:14:14.717Z,31.19
2018-09-19T09:15:14.660Z,31.09
2018-09-19T09:17:07.502Z,31.35
2018-09-19T09:18:07.451Z,31.64
2018-09-19T09:20:00.296Z,31.87
2018-09-19T09:21:00.190Z,31.91
2018-09-19T09:22:52.990Z,31.87
2018-09-19T09:23:52.934Z,31.94
2018-09-19T09:25:45.721Z,31.53
2018-09-19T09:26:45.709Z,31.35
2018-09-19T09:28:38.480Z,31.18
2018-09-19T09:29:38.466Z,31.38
2018-09-19T09:31:31.219Z,31.54
2018-09-19T09:32:31.191Z,31.25
2018-09-19T09:34:24.061Z,31.59
2018-09-19T09:35:23.917Z,31.45
2018-09-19T09:37:16.716Z,31.38
2018-09-19T09:38:16.655Z,31.35
2018-09-19T09:40:09.457Z,31.25
2018-09-19T09:41:09.393Z,31.49
2018-09-19T09:43:02.175Z,31.50
2018-09-19T09:44:02.132Z,31.10
2018-09-19T09:45:55.007Z,31.12
2018-09-19T09:46:54.872Z,31.22
2018-09-19T09:48:47.682Z,31.04
2018-09-19T09:49:47.622Z,31.09
2018-09-19T09:51:40.400Z,31.03
2018-09-19T09:52:40.344Z,31.04
2018-09-19T09:54:33.153Z,31.03
2018-09-19T09:55:33.089Z,31.05
2018-09-19T09:57:25.912Z,31.18
2018-09-19T09:58:25.851Z,31.12
2018-09-19T10:00:18.665Z,31.05
2018-09-19T10:01:18.596Z,31.04
2018-09-19T10:03:11.416Z,31.38
2018-09-19T10:04:11.325Z,31.42
2018-09-19T10:06:04.130Z,31.03
2018-09-19T10:07:04.058Z,30.67
2018-09-19T10:08:56.876Z,30.68
2018-09-19T10:09:56.807Z,30.76
2018-09-19T10:11:49.611Z,30.76
2018-09-19T10:12:49.572Z,30.79
2018-09-19T10:14:42.344Z,30.75
2018-09-19T10:15:42.288Z,30.78
2018-09-19T10:17:35.069Z,30.81
2018-09-19T10:18:35.024Z,30.78
2018-09-19T10:20:27.824Z,30.45
2018-09-19T10:21:27.750Z,30.44
2018-09-19T10:23:20.539Z,30.08
2018-09-19T10:24:20.487Z,30.11
2018-09-19T10:26:13.277Z,30.07
2018-09-19T10:27:13.210Z,30.00
2018-09-19T10:29:06.018Z,30.04
2018-09-19T10:30:05.949Z,30.19
2018-09-19T10:31:58.743Z,30.26
2018-09-19T10:32:58.687Z,30.42
2018-09-19T10:34:51.484Z,30.59
2018-09-19T10:35:51.421Z,30.56
2018-09-19T10:37:44.224Z,30.67
2018-09-19T10:38:44.171Z,30.54
2018-09-19T10:40:36.967Z,30.23
2018-09-19T10:41:36.903Z,30.21
2018-09-19T10:43:29.674Z,30.22
2018-09-19T10:44:29.617Z,30.00
2018-09-19T10:46:21.570Z,30.11
2018-09-19T10:47:21.507Z,30.21
2018-09-19T10:49:14.320Z,30.38
2018-09-19T10:50:14.249Z,30.30
2018-09-19T10:52:07.035Z,30.49
2018-09-19T10:53:06.981Z,30.57
2018-09-19T10:54:59.775Z,30.66
2018-09-19T10:55:59.706Z,30.49
2018-09-19T10:57:52.529Z,30.60
2018-09-19T10:58:52.469Z,30.63
2018-09-19T11:00:45.258Z,30.51
2018-09-19T11:01:45.190Z,30.37
2018-09-19T11:03:37.981Z,29.97
2018-09-19T11:04:37.926Z,29.85
2018-09-19T11:06:30.738Z,29.74
2018-09-19T11:07:30.671Z,29.58
2018-09-19T11:09:22.538Z,29.49
2018-09-19T11:10:22.475Z,29.48
2018-09-19T11:12:15.260Z,29.62
2018-09-19T11:13:15.195Z,29.55
2018-09-19T11:15:07.094Z,29.47
2018-09-19T11:16:06.992Z,29.48
2018-09-19T11:17:59.781Z,29.36
2018-09-19T11:18:59.736Z,29.26
2018-09-19T11:20:52.543Z,29.00
2018-09-19T11:21:52.454Z,29.10
2018-09-19T11:23:44.397Z,29.10
2018-09-19T11:24:44.335Z,29.29
2018-09-19T11:26:37.140Z,29.26
2018-09-19T11:27:37.061Z,29.20
2018-09-19T11:29:29.846Z,29.11
2018-09-19T11:30:29.782Z,28.97
2018-09-19T11:32:22.564Z,28.65
2018-09-19T11:33:22.504Z,28.72
2018-09-19T11:35:15.657Z,28.67
2018-09-19T11:36:15.592Z,28.73
2018-09-19T11:38:08.365Z,28.73
2018-09-19T11:39:08.310Z,28.74
2018-09-19T11:41:00.146Z,28.62
2018-09-19T11:42:00.089Z,28.62
2018-09-19T11:43:52.892Z,28.50
2018-09-19T11:44:52.838Z,28.40
2018-09-19T11:46:45.630Z,28.28
2018-09-19T11:47:45.558Z,28.43
2018-09-19T11:49:38.355Z,28.30
2018-09-19T11:50:38.291Z,28.32
2018-09-19T11:52:31.072Z,28.23
2018-09-19T11:53:31.017Z,28.20
2018-09-19T11:55:23.800Z,28.27
2018-09-19T11:56:23.737Z,28.45
2018-09-19T11:58:16.545Z,28.52
2018-09-19T11:59:16.485Z,28.52
2018-09-19T12:01:09.282Z,28.46
2018-09-19T12:02:09.208Z,28.50
2018-09-19T12:04:01.985Z,28.45
2018-09-19T12:05:01.948Z,28.42
2018-09-19T12:06:54.745Z,28.54
2018-09-19T12:07:54.678Z,28.57
2018-09-19T12:09:47.516Z,28.50
2018-09-19T12:10:47.409Z,28.57
2018-09-19T12:12:40.206Z,28.58
2018-09-19T12:13:40.127Z,28.65
2018-09-19T12:15:32.943Z,28.69
2018-09-19T12:16:32.876Z,28.67
2018-09-19T12:18:24.695Z,28.70
2018-09-19T12:19:24.648Z,28.70
2018-09-19T12:21:17.430Z,28.62
2018-09-19T12:22:17.363Z,28.62
2018-09-19T12:24:10.141Z,28.74
2018-09-19T12:25:10.079Z,28.74
2018-09-19T12:27:02.875Z,28.65
2018-09-19T12:28:02.795Z,28.70
2018-09-19T12:29:55.669Z,28.73
2018-09-19T12:30:55.587Z,28.74
2018-09-19T12:32:48.359Z,28.88
2018-09-19T12:33:48.297Z,28.82
2018-09-19T12:35:41.088Z,28.85
2018-09-19T12:36:41.029Z,28.80
2018-09-19T12:38:33.787Z,28.79
2018-09-19T12:39:33.782Z,28.70
2018-09-19T12:41:26.559Z,28.72
2018-09-19T12:42:26.484Z,28.69
2018-09-19T12:44:19.264Z,28.70
2018-09-19T12:45:19.226Z,28.76
2018-09-19T12:47:12.017Z,28.73
2018-09-19T12:48:11.933Z,28.69
2018-09-19T12:50:04.725Z,28.67
2018-09-19T12:51:04.659Z,28.73
2018-09-19T12:52:57.483Z,28.80
2018-09-19T12:53:57.423Z,28.87
2018-09-19T12:55:50.215Z,28.83
2018-09-19T12:56:50.160Z,28.77
2018-09-19T12:58:42.923Z,28.77
2018-09-19T12:59:42.863Z,28.87
2018-09-19T13:01:34.664Z,28.77
2018-09-19T13:02:34.598Z,28.87
2018-09-19T13:04:27.382Z,28.87
2018-09-19T13:05:27.318Z,28.85
2018-09-19T13:07:20.128Z,28.67
2018-09-19T13:08:20.054Z,28.72
2018-09-19T13:10:12.878Z,28.87
2018-09-19T13:11:12.782Z,28.74
2018-09-19T13:13:05.569Z,28.74
2018-09-19T13:14:05.504Z,28.70
2018-09-19T13:15:58.299Z,28.83
2018-09-19T13:16:58.223Z,28.80
2018-09-19T13:18:50.125Z,28.85
2018-09-19T13:19:50.054Z,29.00
2018-09-19T13:21:42.857Z,28.80
2018-09-19T13:22:42.786Z,28.89
2018-09-19T13:24:35.567Z,28.88
2018-09-19T13:25:35.511Z,28.87
2018-09-19T13:27:28.381Z,29.02
2018-09-19T13:28:28.262Z,28.98
2018-09-19T13:30:21.039Z,29.00
2018-09-19T13:31:20.967Z,29.03
2018-09-19T13:33:13.750Z,28.95
2018-09-19T13:34:13.684Z,29.03
2018-09-19T13:36:06.473Z,29.08
2018-09-19T13:37:06.406Z,29.08
2018-09-19T13:38:59.200Z,29.00
2018-09-19T13:39:59.121Z,29.02
2018-09-19T13:41:51.903Z,29.08
2018-09-19T13:42:51.832Z,29.15
2018-09-19T13:44:44.640Z,29.25
2018-09-19T13:45:44.577Z,29.20
2018-09-19T13:47:37.411Z,29.08
2018-09-19T13:48:37.305Z,29.14
2018-09-19T13:50:30.075Z,29.12
2018-09-19T13:51:30.038Z,29.08
2018-09-19T13:53:22.806Z,29.15
2018-09-19T13:54:22.733Z,29.23
2018-09-19T13:56:14.631Z,29.18
2018-09-19T13:57:14.564Z,29.27
2018-09-19T13:59:07.360Z,29.32
2018-09-19T14:00:07.283Z,29.25
2018-09-19T14:02:00.074Z,29.30
2018-09-19T14:03:00.012Z,29.33
2018-09-19T14:04:51.957Z,29.25
2018-09-19T14:05:51.901Z,29.23
2018-09-19T14:07:44.712Z,29.26
2018-09-19T14:08:44.641Z,29.27
2018-09-19T14:10:37.434Z,29.25
2018-09-19T14:11:37.387Z,29.30
2018-09-19T14:13:30.187Z,29.23
2018-09-19T14:14:30.131Z,29.21
2018-09-19T14:16:22.979Z,29.26
2018-09-19T14:17:22.836Z,29.27
2018-09-19T14:19:15.642Z,29.27
2018-09-19T14:20:15.580Z,29.20
2018-09-19T14:22:08.384Z,29.25
2018-09-19T14:23:08.304Z,29.23
2018-09-19T14:25:01.095Z,29.26
2018-09-19T14:26:01.027Z,29.25
2018-09-19T14:27:53.818Z,29.29
2018-09-19T14:28:53.749Z,29.26
2018-09-19T14:30:46.528Z,29.25
2018-09-19T14:31:46.468Z,29.23
2018-09-19T14:33:39.272Z,29.30
2018-09-19T14:34:39.196Z,29.23
2018-09-19T14:36:31.987Z,29.23
2018-09-19T14:37:31.921Z,29.26
2018-09-19T14:39:24.697Z,29.21
2018-09-19T14:40:24.641Z,29.30
2018-09-19T14:42:17.433Z,29.35
2018-09-19T14:43:17.360Z,29.27
2018-09-19T14:45:10.147Z,29.25
2018-09-19T14:46:10.084Z,29.32
2018-09-19T14:48:02.882Z,29.32
2018-09-19T14:49:02.821Z,29.23
2018-09-19T14:50:55.598Z,29.33
2018-09-19T14:51:55.539Z,29.30
2018-09-19T14:53:48.347Z,29.23
2018-09-19T14:54:48.277Z,29.29
2018-09-19T14:56:41.061Z,29.32
2018-09-19T14:57:40.992Z,29.32
2018-09-19T14:59:33.776Z,29.27
2018-09-19T15:00:33.718Z,29.35
2018-09-19T15:02:26.499Z,29.33
2018-09-19T15:03:26.430Z,29.33
2018-09-19T15:05:19.209Z,29.30
2018-09-19T15:06:19.155Z,29.41
2018-09-19T15:08:11.938Z,29.29
2018-09-19T15:09:11.870Z,29.27
2018-09-19T15:11:04.641Z,29.23
2018-09-19T15:12:04.584Z,29.23
2018-09-19T15:13:57.371Z,29.26
2018-09-19T15:14:57.300Z,29.17
2018-09-19T15:16:50.085Z,29.21
2018-09-19T15:17:50.022Z,29.20
2018-09-19T15:19:42.832Z,29.07
2018-09-19T15:20:42.773Z,29.17
2018-09-19T15:22:35.575Z,29.17
2018-09-19T15:23:35.506Z,29.17
2018-09-19T15:25:28.291Z,29.15
2018-09-19T15:26:28.228Z,29.11
2018-09-19T15:28:21.036Z,29.05
2018-09-19T15:29:20.946Z,29.03
2018-09-19T15:31:13.721Z,29.00
2018-09-19T15:32:13.680Z,28.97
2018-09-19T15:34:06.511Z,28.89
2018-09-19T15:35:06.438Z,28.88
2018-09-19T15:36:59.227Z,28.88
2018-09-19T15:37:59.161Z,28.89
2018-09-19T15:39:51.944Z,28.97
2018-09-19T15:40:51.879Z,28.95
2018-09-19T15:42:44.727Z,29.03
2018-09-19T15:43:44.599Z,28.98
2018-09-19T15:45:37.383Z,28.89
2018-09-19T15:46:37.328Z,28.92
2018-09-19T15:48:30.183Z,28.91
2018-09-19T15:49:30.045Z,28.91
2018-09-19T15:51:22.859Z,28.88
2018-09-19T15:52:22.793Z,28.79
2018-09-19T15:54:15.579Z,28.85
2018-09-19T15:55:15.515Z,28.74
2018-09-19T15:57:08.329Z,28.76
2018-09-19T15:58:08.228Z,28.77
2018-09-19T16:00:01.009Z,28.72
2018-09-19T16:01:00.948Z,28.73
2018-09-19T16:02:53.763Z,28.76
2018-09-19T16:03:53.690Z,28.61
2018-09-19T16:05:46.493Z,28.55
2018-09-19T16:06:46.413Z,28.57
2018-09-19T16:08:39.193Z,28.64
2018-09-19T16:09:39.129Z,28.51
2018-09-19T16:11:31.933Z,28.48
2018-09-19T16:12:31.861Z,28.50
2018-09-19T16:14:24.641Z,28.43
2018-09-19T16:15:24.604Z,28.28
2018-09-19T16:17:17.357Z,28.21
2018-09-19T16:18:17.286Z,28.18
2018-09-19T16:20:10.080Z,28.24
2018-09-19T16:21:10.014Z,28.23
2018-09-19T16:23:03.651Z,28.13
2018-09-19T16:24:03.573Z,28.15
2018-09-19T16:25:56.344Z,28.03
2018-09-19T16:26:56.332Z,28.03
2018-09-19T16:28:49.074Z,28.01
2018-09-19T16:29:49.099Z,27.93
2018-09-19T16:31:41.792Z,27.95
2018-09-19T16:32:41.736Z,27.98
2018-09-19T16:34:34.526Z,27.80
2018-09-19T16:35:34.509Z,27.80
2018-09-19T16:37:27.314Z,27.69
2018-09-19T16:38:27.224Z,27.66
2018-09-19T16:40:19.997Z,27.48
2018-09-19T16:41:19.941Z,27.39
2018-09-19T16:43:12.759Z,27.35
2018-09-19T16:44:12.711Z,27.34
2018-09-19T16:46:04.600Z,27.20
2018-09-19T16:47:04.534Z,27.20
2018-09-19T16:48:57.331Z,27.08
2018-09-19T16:49:57.253Z,27.09
2018-09-19T16:51:50.056Z,27.02
2018-09-19T16:52:50.046Z,26.87
2018-09-19T16:54:42.856Z,26.83
2018-09-19T16:55:42.715Z,26.86
2018-09-19T16:57:35.508Z,26.66
2018-09-19T16:58:35.448Z,26.64
2018-09-19T17:00:28.244Z,26.41
2018-09-19T17:01:28.188Z,26.44
2018-09-19T17:03:20.958Z,26.31
2018-09-19T17:04:20.871Z,26.28
2018-09-19T17:06:13.660Z,26.12
2018-09-19T17:07:13.589Z,26.08
2018-09-19T17:09:06.393Z,25.86
2018-09-19T17:10:06.317Z,25.85
2018-09-19T17:11:59.090Z,25.74
2018-09-19T17:12:59.031Z,25.75
2018-09-19T17:14:51.009Z,25.66
2018-09-19T17:15:50.951Z,25.56
2018-09-19T17:17:43.712Z,25.48
2018-09-19T17:18:43.649Z,25.38
2018-09-19T17:20:36.438Z,25.24
2018-09-19T17:21:36.364Z,25.27
2018-09-19T17:23:29.154Z,25.14
2018-09-19T17:24:29.074Z,25.05
2018-09-19T17:26:21.857Z,25.01
2018-09-19T17:27:21.799Z,25.04
2018-09-19T17:29:14.601Z,24.90
2018-09-19T17:30:14.529Z,24.79
2018-09-19T17:32:07.328Z,24.68
2018-09-19T17:33:07.249Z,24.75
2018-09-19T17:35:00.038Z,24.64
2018-09-19T17:35:59.962Z,24.63
2018-09-19T17:37:52.754Z,24.63
2018-09-19T17:38:52.692Z,24.48
2018-09-19T17:40:45.476Z,24.48
2018-09-19T17:41:45.404Z,24.48
2018-09-19T17:43:38.183Z,24.33
2018-09-19T17:44:38.112Z,24.36
2018-09-19T17:46:30.898Z,24.41
2018-09-19T17:47:30.840Z,24.39
2018-09-19T17:49:23.627Z,24.34
2018-09-19T17:50:23.579Z,24.33
2018-09-19T17:52:16.330Z,24.27
2018-09-19T17:53:16.259Z,24.29
2018-09-19T17:55:09.040Z,24.18
2018-09-19T17:56:08.970Z,24.23
2018-09-19T17:58:01.752Z,24.15
2018-09-19T17:59:01.698Z,24.21
2018-09-19T18:00:54.513Z,24.04
2018-09-19T18:01:54.405Z,24.06
2018-09-19T18:03:47.195Z,23.97
2018-09-19T18:04:47.118Z,23.93
2018-09-19T18:06:39.887Z,23.87
2018-09-19T18:07:39.824Z,23.84
2018-09-19T18:09:32.603Z,23.89
2018-09-19T18:10:32.544Z,23.84
2018-09-19T18:12:25.315Z,23.74
2018-09-19T18:13:25.254Z,23.64
2018-09-19T18:15:18.035Z,23.74
2018-09-19T18:16:17.966Z,23.62
2018-09-19T18:18:10.769Z,23.60
2018-09-19T18:19:10.695Z,23.60
2018-09-19T18:21:03.478Z,23.44
2018-09-19T18:22:03.402Z,23.49
2018-09-19T18:23:56.186Z,23.49
2018-09-19T18:24:56.114Z,23.34
2018-09-19T18:26:48.878Z,23.44
2018-09-19T18:27:48.821Z,23.39
2018-09-19T18:29:41.606Z,23.39
2018-09-19T18:30:41.559Z,23.38
2018-09-19T18:32:34.310Z,23.35